Time;durP1;ratioP1;P1;durP2;ratioP2;P2;SDS_P1;SDS_P2;PMS_P1;PMS_P2;Temp;Humidity;BMP_temperature;BMP_pressure;BME280_temperature;BME280_humidity;BME280_pressure;Samples;Min_cycle;Max_cycle;Signal;HPM_P1;HPM_P2
2021/05/31 00:00:50;;;;;;;;;18.25;8.50;;;;;15.60;53.92;101845.09;4976936;23;54131;-90
2021/05/31 00:03:15;;;;;;;;;11.75;8.75;;;;;15.39;53.96;101808.91;4955802;28;45525;-92
2021/05/31 00:05:41;;;;;;;;;8.25;7.25;;;;;15.36;54.25;101808.78;4940355;28;46979;-92
2021/05/31 00:08:07;;;;;;;;;14.00;9.00;;;;;15.29;54.06;101797.81;4954414;28;59620;-91
2021/05/31 00:10:32;;;;;;;;;10.25;8.25;;;;;15.31;54.02;101809.34;4953094;28;45377;-92
2021/05/31 00:12:58;;;;;;;;;10.75;9.00;;;;;15.48;54.28;101839.19;4936261;28;45565;-91
2021/05/31 00:15:23;;;;;;;;;9.00;7.00;;;;;15.37;54.30;101817.56;5035896;23;47185;-82
2021/05/31 00:17:49;;;;;;;;;9.75;7.25;;;;;15.44;54.20;101835.50;4969384;28;47548;-79
2021/05/31 00:20:15;;;;;;;;;8.75;8.00;;;;;15.28;53.70;101809.19;4968903;28;45885;-80
2021/05/31 00:22:41;;;;;;;;;10.75;7.75;;;;;15.42;54.64;101830.97;4970152;28;45531;-80
2021/05/31 00:25:08;;;;;;;;;12.50;7.75;;;;;15.35;54.69;101830.63;5014363;23;46249;-84
2021/05/31 00:27:33;;;;;;;;;7.25;6.75;;;;;15.39;54.41;101829.97;4932367;28;45649;-84
2021/05/31 00:29:59;;;;;;;;;8.75;7.50;;;;;15.36;54.54;101823.66;4950426;28;58991;-85
2021/05/31 00:32:24;;;;;;;;;9.50;7.25;;;;;15.30;54.94;101820.69;4929906;28;45682;-84
2021/05/31 00:34:49;;;;;;;;;9.25;7.25;;;;;15.27;54.84;101821.44;4945100;28;46829;-85
2021/05/31 00:37:15;;;;;;;;;9.50;8.00;;;;;15.10;55.24;101792.47;4964943;28;54339;-85
2021/05/31 00:39:41;;;;;;;;;13.50;7.50;;;;;15.09;55.25;101789.75;4961953;28;45532;-84
2021/05/31 00:42:06;;;;;;;;;11.75;8.50;;;;;15.25;55.10;101825.72;4965578;28;47420;-84
2021/05/31 00:44:32;;;;;;;;;11.50;8.75;;;;;15.22;55.31;101828.19;4957931;28;47136;-85
2021/05/31 00:46:57;;;;;;;;;11.75;9.00;;;;;15.16;55.26;101819.94;4948024;28;46747;-84
2021/05/31 00:49:24;;;;;;;;;12.75;7.25;;;;;15.18;55.42;101820.94;4967609;28;45546;-84
2021/05/31 00:51:49;;;;;;;;;6.75;6.00;;;;;15.16;55.29;101818.22;4944814;28;45520;-85
2021/05/31 00:54:15;;;;;;;;;12.75;9.00;;;;;14.97;55.15;101790.88;4956430;23;46455;-91
2021/05/31 00:56:41;;;;;;;;;8.25;6.50;;;;;15.01;55.44;101805.13;4942708;28;45521;-91
2021/05/31 00:59:07;;;;;;;;;7.50;6.75;;;;;14.94;55.24;101790.75;5010986;23;45984;-90
2021/05/31 01:01:33;;;;;;;;;13.00;6.50;;;;;14.91;55.22;101789.66;4977079;28;45590;-91
2021/05/31 01:03:58;;;;;;;;;9.25;5.75;;;;;14.87;55.41;101784.25;4974389;28;47280;-91
2021/05/31 01:06:25;;;;;;;;;6.00;6.00;;;;;14.98;55.41;101808.50;5105355;23;47670;-91
2021/05/31 01:11:32;;;;;;;;;5.75;5.75;;;;;14.99;55.96;101806.75;4993766;23;66138;-84
2021/05/31 01:14:09;;;;;;;;;7.00;6.00;;;;;14.94;56.00;101806.53;4946814;28;45892;-85
2021/05/31 01:17:10;;;;;;;;;8.50;6.75;;;;;14.89;55.78;101793.94;4933659;28;45780;-84
2021/05/31 01:20:03;;;;;;;;;10.50;7.00;;;;;14.63;55.89;101757.44;4961653;23;45765;-91
2021/05/31 01:22:32;;;;;;;;;9.00;6.25;;;;;14.85;56.02;101799.03;4973288;23;45546;-79
2021/05/31 01:25:16;;;;;;;;;6.00;6.00;;;;;14.86;56.40;101802.59;4935497;28;46263;-80
2021/05/31 01:28:03;;;;;;;;;7.00;6.00;;;;;14.83;56.26;101799.78;4919124;28;45642;-80
2021/05/31 01:30:29;;;;;;;;;6.25;5.00;;;;;14.83;56.36;101807.66;4935491;28;45282;-83
2021/05/31 01:32:54;;;;;;;;;7.00;6.50;;;;;14.79;56.25;101797.78;4930857;28;45481;-82
2021/05/31 01:35:25;;;;;;;;;8.00;6.00;;;;;14.77;56.30;101802.97;4983830;23;63976;-83
2021/05/31 01:37:51;;;;;;;;;11.25;7.00;;;;;14.76;55.43;101798.50;4962349;28;45705;-84
2021/05/31 01:40:16;;;;;;;;;7.00;5.75;;;;;14.74;55.82;101798.41;5019513;23;46202;-91
2021/05/31 01:42:42;;;;;;;;;7.00;5.25;;;;;14.73;56.16;101799.25;4923519;28;55022;-91
2021/05/31 01:45:10;;;;;;;;;7.25;5.50;;;;;14.68;56.07;101797.16;4943467;28;47180;-90
2021/05/31 01:47:40;;;;;;;;;7.00;5.00;;;;;14.43;56.39;101751.09;5090210;23;45393;-90
2021/05/31 01:53:02;;;;;;;;;7.25;6.00;;;;;14.65;55.91;101783.84;4903405;28;45727;-80
2021/05/31 01:55:28;;;;;;;;;6.00;6.00;;;;;14.65;55.68;101786.47;4933454;28;46377;-79
2021/05/31 01:57:53;;;;;;;;;6.50;6.00;;;;;14.55;55.34;101771.91;4941870;28;45579;-79
2021/05/31 02:00:18;;;;;;;;;9.50;6.50;;;;;14.32;55.84;101735.59;4988593;23;50003;-84
2021/05/31 02:02:44;;;;;;;;;8.25;6.25;;;;;14.43;55.33;101745.84;4924913;28;46769;-84
2021/05/31 02:05:10;;;;;;;;;7.75;7.75;;;;;14.60;55.28;101773.06;4958036;28;45612;-84
2021/05/31 02:07:39;;;;;;;;;6.75;5.25;;;;;14.49;55.39;101764.56;4977454;23;45391;-91
2021/05/31 02:12:50;;;;;;;;;6.00;6.00;;;;;14.51;55.83;101760.31;5107820;23;45636;-83
2021/05/31 02:15:19;;;;;;;;;10.00;6.00;;;;;14.58;55.76;101775.59;4927812;28;46496;-83
2021/05/31 02:17:57;;;;;;;;;4.75;4.75;;;;;14.43;56.12;101751.09;4980562;23;45317;-91
2021/05/31 02:20:23;;;;;;;;;5.50;5.50;;;;;14.40;55.71;101745.66;5467329;23;47170;-91
2021/05/31 02:22:50;;;;;;;;;5.00;4.00;;;;;14.47;54.82;101764.47;4960196;28;46410;-91
2021/05/31 02:25:16;;;;;;;;;8.50;5.00;;;;;14.35;55.66;101740.13;4972448;28;47328;-91
2021/05/31 02:27:44;;;;;;;;;5.00;5.00;;;;;14.40;55.42;101761.44;4991487;28;45516;-91
2021/05/31 02:30:10;;;;;;;;;7.25;6.00;;;;;14.35;55.60;101750.66;5212854;23;46208;-91
2021/05/31 02:32:35;;;;;;;;;8.50;5.00;;;;;14.22;55.31;101728.91;4953134;28;45493;-91
2021/05/31 02:35:00;;;;;;;;;6.75;4.75;;;;;14.26;55.44;101739.63;4923030;28;52618;-90
2021/05/31 02:37:36;;;;;;;;;5.75;5.75;;;;;14.29;54.51;101748.56;4938297;28;54015;-90
2021/05/31 02:40:06;;;;;;;;;9.50;6.75;;;;;14.34;54.80;101754.09;5373533;23;46690;-90
2021/05/31 02:42:48;;;;;;;;;7.25;5.50;;;;;14.46;54.85;101774.91;4994263;23;45557;-91
2021/05/31 02:45:14;;;;;;;;;9.75;5.75;;;;;14.17;54.26;101718.97;5339377;23;46486;-91
2021/05/31 02:47:40;;;;;;;;;7.25;6.00;;;;;14.16;54.50;101720.72;5055821;23;45731;-91
2021/05/31 02:50:06;;;;;;;;;5.75;5.00;;;;;14.40;54.08;101764.97;5007685;28;45717;-91
2021/05/31 02:52:31;;;;;;;;;5.75;3.50;;;;;14.31;54.55;101749.59;4975727;28;44792;-90
2021/05/31 02:57:32;;;;;;;;;5.75;5.00;;;;;14.41;54.50;101772.03;4986415;23;45509;-83
2021/05/31 02:59:57;;;;;;;;;6.00;4.75;;;;;14.34;55.11;101759.34;4963814;28;45808;-84
2021/05/31 03:02:23;;;;;;;;;4.50;4.50;;;;;14.41;55.22;101784.28;4944281;28;45768;-84
2021/05/31 03:04:48;;;;;;;;;6.75;5.00;;;;;14.35;55.22;101775.22;4965226;28;45506;-85
2021/05/31 03:07:13;;;;;;;;;5.25;5.25;;;;;14.32;55.55;101776.78;4931146;28;45878;-84
2021/05/31 03:09:39;;;;;;;;;6.25;6.00;;;;;14.28;55.00;101773.06;4960629;28;45639;-84
2021/05/31 03:12:04;;;;;;;;;5.50;5.25;;;;;14.28;54.85;101773.06;4967069;28;45810;-84
2021/05/31 03:14:30;;;;;;;;;6.00;5.00;;;;;14.30;54.83;101776.69;4996731;23;46062;-90
2021/05/31 03:19:40;;;;;;;;;6.00;5.25;;;;;14.17;55.43;101758.38;4953682;28;45837;-91
2021/05/31 03:22:06;;;;;;;;;8.00;5.00;;;;;13.99;55.31;101740.75;4954007;28;45452;-90
2021/05/31 03:24:31;;;;;;;;;7.00;5.00;;;;;14.25;55.31;101785.13;4920435;28;65375;-91
2021/05/31 03:29:32;;;;;;;;;7.00;4.75;;;;;14.18;55.46;101783.88;5375063;22;45536;-82
2021/05/31 03:31:57;;;;;;;;;5.50;4.50;;;;;14.19;55.55;101788.31;4946160;28;45519;-84
2021/05/31 03:34:22;;;;;;;;;7.25;5.75;;;;;14.00;55.91;101765.31;5081359;23;58627;-84
2021/05/31 03:36:48;;;;;;;;;10.50;6.00;;;;;13.90;55.64;101758.63;4913423;28;47930;-84
2021/05/31 03:39:13;;;;;;;;;6.50;6.00;;;;;13.89;55.46;101760.34;4941508;28;48141;-84
2021/05/31 03:41:39;;;;;;;;;9.00;6.75;;;;;13.98;55.83;101773.13;4960402;28;45767;-84
2021/05/31 03:44:05;;;;;;;;;3.50;3.25;;;;;14.04;56.06;101794.47;4939544;23;45773;-92
2021/05/31 03:46:30;;;;;;;;;10.00;6.75;;;;;14.05;55.67;101801.56;4925137;23;45797;-84
2021/05/31 03:48:56;;;;;;;;;6.25;6.25;;;;;13.97;56.09;101787.06;4950712;23;55951;-83
2021/05/31 03:51:21;;;;;;;;;5.75;5.75;;;;;13.86;55.82;101775.91;4926005;28;45840;-83
2021/05/31 03:53:47;;;;;;;;;8.50;4.50;;;;;14.02;55.98;101810.97;4927432;23;48207;-90
2021/05/31 03:56:12;;;;;;;;;7.25;6.00;;;;;13.79;56.36;101763.25;4936879;28;45540;-91
2021/05/31 03:58:39;;;;;;;;;7.25;6.75;;;;;13.97;55.79;101800.19;4925738;28;48421;-90
2021/05/31 04:01:06;;;;;;;;;10.00;6.00;;;;;13.85;55.97;101776.75;4929008;28;45601;-90
2021/05/31 04:06:20;;;;;;;;;10.00;6.75;;;;;13.81;56.00;101772.13;5120807;23;46037;-90
2021/05/31 04:11:39;;;;;;;;;6.75;6.00;;;;;14.04;56.14;101801.47;4925968;28;45509;-91
2021/05/31 04:14:08;;;;;;;;;8.25;6.50;;;;;14.06;56.35;101805.09;4947803;28;46377;-91
2021/05/31 04:16:34;;;;;;;;;10.25;5.75;;;;;14.04;55.59;101798.84;4924995;28;45772;-92
2021/05/31 04:19:00;;;;;;;;;10.00;7.00;;;;;13.91;55.40;101766.59;4916361;28;45831;-91
2021/05/31 04:23:58;;;;;;;;;13.00;7.25;;;;;13.94;55.14;101758.00;5169238;22;46998;-89
2021/05/31 04:26:24;;;;;;;;;11.00;6.75;;;;;14.13;54.68;101782.69;4954283;28;45779;-90
2021/05/31 04:28:49;;;;;;;;;7.00;5.75;;;;;14.16;54.40;101781.16;4960471;28;50201;-91
2021/05/31 04:31:14;;;;;;;;;8.50;6.00;;;;;14.18;54.41;101776.88;4975234;28;45620;-91
2021/05/31 04:36:31;;;;;;;;;8.25;6.50;;;;;14.26;53.89;101771.16;5417352;23;45774;-81
2021/05/31 04:39:00;;;;;;;;;7.00;6.00;;;;;14.41;53.89;101793.06;4972935;28;45686;-84
2021/05/31 04:41:26;;;;;;;;;11.75;8.00;;;;;14.45;53.56;101797.69;4974407;28;45670;-82
2021/05/31 04:43:51;;;;;;;;;7.25;6.00;;;;;14.50;53.47;101797.94;4967416;28;45555;-82
2021/05/31 04:46:17;;;;;;;;;8.75;6.50;;;;;14.53;53.34;101797.22;5028425;23;45498;-85
2021/05/31 04:48:42;;;;;;;;;8.50;4.50;;;;;14.33;53.02;101757.56;4918920;28;48633;-84
2021/05/31 04:51:08;;;;;;;;;10.75;7.50;;;;;14.42;53.21;101768.59;4980712;23;45630;-90
2021/05/31 04:53:33;;;;;;;;;6.75;6.00;;;;;14.40;53.04;101766.69;4967310;28;66925;-91
2021/05/31 04:56:01;;;;;;;;;7.00;6.50;;;;;14.38;53.15;101760.44;5364794;23;47259;-83
2021/05/31 04:58:26;;;;;;;;;9.00;7.00;;;;;14.53;53.09;101782.31;4970138;28;46061;-84
2021/05/31 05:00:52;;;;;;;;;6.00;6.00;;;;;14.61;53.04;101786.28;4961237;23;57297;-90
2021/05/31 05:03:18;;;;;;;;;9.50;6.50;;;;;14.71;52.97;101806.13;4998630;23;45821;-82
2021/05/31 05:08:15;;;;;;;;;7.75;7.75;;;;;14.70;52.81;101795.50;4943311;28;45854;-83
2021/05/31 05:10:41;;;;;;;;;9.00;7.00;;;;;14.74;52.65;101806.31;4939527;28;45970;-84
2021/05/31 05:13:06;;;;;;;;;10.50;8.50;;;;;14.58;52.78;101769.44;4943241;28;46426;-84
2021/05/31 05:15:34;;;;;;;;;9.50;7.00;;;;;14.55;53.15;101764.94;4947410;28;45559;-84
2021/05/31 05:17:59;;;;;;;;;10.25;6.75;;;;;14.71;52.47;101790.34;4990823;23;45616;-90
2021/05/31 05:20:30;;;;;;;;;7.00;7.00;;;;;14.79;52.74;101790.81;5023684;28;59158;-89
2021/05/31 05:22:58;;;;;;;;;7.75;6.50;;;;;14.76;52.74;101782.72;5053297;22;46043;-90
2021/05/31 05:25:23;;;;;;;;;8.75;7.00;;;;;14.78;52.41;101788.97;5150141;22;46461;-84
2021/05/31 05:27:49;;;;;;;;;8.50;8.50;;;;;14.81;53.03;101789.16;5033547;28;46253;-84
2021/05/31 05:30:18;;;;;;;;;11.00;9.00;;;;;14.94;52.67;101793.38;5054342;22;45656;-91
2021/05/31 05:32:48;;;;;;;;;9.00;7.00;;;;;14.87;52.66;101776.34;5248074;23;47368;-89
2021/05/31 05:35:25;;;;;;;;;9.00;7.00;;;;;14.98;52.14;101791.81;5733511;22;47018;-90
2021/05/31 05:51:07;;;;;;;;;9.50;7.00;;;;;15.11;51.51;101764.44;5762723;22;47069;-89
2021/05/31 05:53:36;;;;;;;;;10.00;7.00;;;;;15.42;51.80;101778.31;5043974;28;46394;-90
2021/05/31 05:56:04;;;;;;;;;6.50;6.00;;;;;15.77;51.15;101769.56;5039708;28;45592;-90
2021/05/31 05:58:37;;;;;;;;;6.25;6.00;;;;;16.63;50.53;101747.31;5033658;28;45700;-89
2021/05/31 06:01:02;;;;;;;;;6.25;6.25;;;;;18.05;48.45;101777.31;5242278;22;50409;-84
2021/05/31 06:03:44;;;;;;;;;7.75;6.25;;;;;19.67;47.12;101761.31;5039569;28;45575;-82
2021/05/31 06:06:09;;;;;;;;;7.50;6.00;;;;;21.73;44.51;101783.41;5034335;28;45740;-80
2021/05/31 06:08:36;;;;;;;;;8.25;6.50;;;;;23.70;41.11;101785.00;5041129;28;45545;-81
2021/05/31 06:11:01;;;;;;;;;9.75;7.50;;;;;25.38;38.75;101776.69;5037996;28;46814;-80
2021/05/31 06:13:27;;;;;;;;;7.50;7.00;;;;;27.09;36.31;101776.97;5030542;28;45670;-82
2021/05/31 06:18:22;;;;;;;;;8.75;8.50;;;;;29.79;31.95;101760.19;5039060;28;45619;-82
2021/05/31 06:20:48;;;;;;;;;8.00;7.75;;;;;30.80;30.47;101760.03;5025125;28;58261;-85
2021/05/31 06:23:13;;;;;;;;;8.25;8.00;;;;;31.74;28.64;101752.31;5038176;28;46793;-85
2021/05/31 06:25:39;;;;;;;;;7.25;6.00;;;;;32.71;26.55;101760.44;5027875;28;46259;-81
2021/05/31 06:28:06;;;;;;;;;6.50;5.50;;;;;33.55;25.73;101788.31;5034572;23;45529;-89
2021/05/31 06:30:32;;;;;;;;;5.25;5.25;;;;;34.08;25.29;101788.81;5043026;28;45209;-89
2021/05/31 06:32:58;;;;;;;;;7.75;6.00;;;;;34.66;25.09;101791.75;5026853;28;47490;-89
2021/05/31 06:40:33;;;;;;;;;7.50;6.00;;;;;35.78;22.51;101773.72;5136753;23;45631;-81
2021/05/31 06:42:59;;;;;;;;;6.00;6.00;;;;;36.01;19.60;101773.84;5072675;23;45758;-82
2021/05/31 06:45:26;;;;;;;;;7.50;6.75;;;;;36.21;21.39;101779.50;5035659;28;46930;-82
2021/05/31 06:47:53;;;;;;;;;7.00;7.00;;;;;36.25;20.78;101783.88;5057729;22;45678;-81
2021/05/31 06:50:18;;;;;;;;;6.00;6.00;;;;;36.23;21.87;101777.63;5038700;28;46020;-80
2021/05/31 06:55:19;;;;;;;;;8.75;6.50;;;;;35.79;20.67;101788.22;6005377;23;45814;-81
2021/05/31 06:57:47;;;;;;;;;8.25;6.00;;;;;35.55;20.81;101756.38;5040836;22;45545;-91
2021/05/31 07:00:13;;;;;;;;;5.75;5.75;;;;;35.31;21.10;101741.78;5051833;28;45398;-90
2021/05/31 07:02:39;;;;;;;;;8.00;8.00;;;;;35.12;21.49;101776.78;5046883;28;48294;-91
2021/05/31 07:05:06;;;;;;;;;9.25;7.50;;;;;34.57;20.55;101754.88;5053284;28;45738;-88
2021/05/31 07:07:31;;;;;;;;;8.00;8.00;;;;;33.93;22.08;101761.16;5014331;28;46727;-90
2021/05/31 07:15:10;;;;;;;;;6.50;6.50;;;;;31.58;23.65;101732.78;5564999;23;46065;-90
2021/05/31 07:17:36;;;;;;;;;9.75;5.75;;;;;30.96;23.51;101733.72;5048962;28;45405;-91
2021/05/31 07:20:23;;;;;;;;;6.00;6.00;;;;;30.31;24.69;101733.63;5029831;28;45518;-89
2021/05/31 07:22:48;;;;;;;;;9.00;6.25;;;;;29.40;25.32;101725.47;5030817;28;47670;-91
2021/05/31 07:25:15;;;;;;;;;8.25;6.00;;;;;28.61;25.50;101725.94;5029477;28;45651;-91
2021/05/31 07:27:41;;;;;;;;;8.50;7.00;;;;;27.90;25.93;101752.03;5045753;28;45592;-89
2021/05/31 07:30:07;;;;;;;;;6.00;6.00;;;;;26.79;25.85;101740.19;5035590;28;45521;-92
2021/05/31 07:32:32;;;;;;;;;7.00;7.00;;;;;25.86;27.93;101727.16;5030690;28;47084;-91
2021/05/31 07:34:57;;;;;;;;;8.50;6.50;;;;;25.22;28.26;101761.34;5040983;28;45615;-91
2021/05/31 07:37:23;;;;;;;;;7.50;5.75;;;;;24.47;29.66;101717.69;5051772;28;45525;-93
2021/05/31 07:39:48;;;;;;;;;5.50;5.00;;;;;24.26;30.24;101761.91;5050497;28;51526;-92
2021/05/31 07:42:14;;;;;;;;;5.25;5.25;;;;;23.79;30.89;101760.28;5030744;28;47256;-92
2021/05/31 07:44:39;;;;;;;;;8.00;5.75;;;;;23.31;31.40;101742.53;5047531;28;45643;-90
2021/05/31 07:47:05;;;;;;;;;6.50;5.00;;;;;22.85;31.42;101705.22;5023926;28;47669;-92
2021/05/31 07:49:30;;;;;;;;;6.00;6.00;;;;;22.53;31.92;101713.41;5054149;28;47393;-90
2021/05/31 07:51:56;;;;;;;;;6.75;5.00;;;;;22.49;32.76;101760.34;5037918;28;47000;-90
2021/05/31 07:54:23;;;;;;;;;6.75;4.50;;;;;22.16;32.35;101754.31;5031882;28;45814;-88
2021/05/31 07:56:49;;;;;;;;;5.00;5.00;;;;;21.94;33.22;101747.56;5047772;28;45548;-90
2021/05/31 07:59:14;;;;;;;;;5.00;5.00;;;;;21.76;33.72;101748.00;5596427;23;46553;-82
2021/05/31 08:07:01;;;;;;;;;6.25;6.25;;;;;21.22;34.33;101732.41;5292715;22;46375;-94
2021/05/31 08:09:27;;;;;;;;;5.00;5.00;;;;;21.06;34.79;101733.75;5058103;28;45460;-94
2021/05/31 08:11:52;;;;;;;;;7.00;5.50;;;;;20.87;34.65;101711.94;5040313;28;46191;-94
2021/05/31 08:14:18;;;;;;;;;7.00;5.50;;;;;21.10;35.17;101761.28;5041816;28;45400;-95
2021/05/31 08:16:43;;;;;;;;;6.25;5.00;;;;;20.90;34.79;101725.34;5059213;28;45433;-93
2021/05/31 08:19:08;;;;;;;;;7.50;6.00;;;;;21.00;34.61;101737.13;5059851;28;45521;-94
2021/05/31 08:21:37;;;;;;;;;5.25;4.75;;;;;20.99;34.82;101734.41;5018896;28;46889;-93
2021/05/31 08:24:04;;;;;;;;;6.75;5.25;;;;;20.90;35.64;101719.16;5047382;28;45391;-94
2021/05/31 08:26:30;;;;;;;;;6.00;4.50;;;;;21.04;34.92;101741.66;5048086;28;45435;-93
2021/05/31 08:28:55;;;;;;;;;7.25;5.50;;;;;20.88;34.20;101695.19;5029637;28;45667;-93
2021/05/31 08:31:21;;;;;;;;;5.00;5.00;;;;;21.10;34.48;101721.44;5054721;28;45561;-92
2021/05/31 08:33:48;;;;;;;;;6.75;5.00;;;;;20.97;33.97;101694.53;5032317;28;47904;-92
2021/05/31 08:36:13;;;;;;;;;5.00;4.75;;;;;21.11;34.05;101716.16;5042857;28;46445;-93
2021/05/31 08:38:39;;;;;;;;;6.50;5.50;;;;;20.91;33.13;101689.06;5057395;28;45863;-94
2021/05/31 08:41:04;;;;;;;;;5.75;4.50;;;;;20.93;33.48;101700.59;5017684;28;48079;-92
2021/05/31 08:43:30;;;;;;;;;4.50;4.50;;;;;20.93;32.50;101685.59;5032506;28;45364;-94
2021/05/31 08:45:56;;;;;;;;;6.00;4.00;;;;;21.01;33.03;101693.75;5032838;28;45429;-92
2021/05/31 08:48:21;;;;;;;;;4.75;4.75;;;;;20.99;31.83;101676.88;5024744;28;45416;-94
2021/05/31 08:50:47;;;;;;;;;6.75;4.50;;;;;21.02;33.30;101679.63;5050292;28;47198;-93
2021/05/31 08:53:13;;;;;;;;;7.00;5.50;;;;;21.16;32.24;101706.59;5024336;28;45501;-94
2021/05/31 08:55:38;;;;;;;;;3.75;3.75;;;;;21.00;32.58;101670.72;5036004;28;45356;-94
2021/05/31 08:58:04;;;;;;;;;4.75;4.75;;;;;21.16;32.23;101700.34;5022379;28;45572;-95
2021/05/31 09:00:34;;;;;;;;;5.00;5.00;;;;;21.19;31.31;101700.44;5017894;28;47337;-93
2021/05/31 09:03:09;;;;;;;;;5.75;5.00;;;;;21.18;31.99;101682.69;5031371;28;45546;-94
2021/05/31 09:05:36;;;;;;;;;5.00;5.00;;;;;21.36;32.28;101714.16;5038726;28;45951;-92
2021/05/31 09:08:15;;;;;;;;;6.00;4.75;;;;;21.40;31.67;101709.84;5057274;28;45533;-92
2021/05/31 09:14:32;;;;;;;;;7.50;5.75;;;;;21.36;31.70;101684.03;5025807;28;45695;-93
2021/05/31 09:16:58;;;;;;;;;7.75;6.00;;;;;21.18;32.46;101653.44;5021938;28;45430;-93
2021/05/31 09:22:07;;;;;;;;;7.50;6.00;;;;;21.50;32.46;101697.69;5017892;28;46040;-81
2021/05/31 09:24:32;;;;;;;;;6.50;5.25;;;;;21.53;32.22;101685.38;5018165;28;62235;-82
2021/05/31 09:26:59;;;;;;;;;7.00;5.50;;;;;21.52;31.61;101699.53;5021339;28;45523;-81
2021/05/31 09:29:25;;;;;;;;;6.00;4.75;;;;;21.25;31.91;101657.19;5024256;22;45805;-89
2021/05/31 09:32:02;;;;;;;;;6.00;6.00;;;;;21.48;31.70;101696.72;5017389;23;47263;-81
2021/05/31 09:34:29;;;;;;;;;7.75;5.50;;;;;21.49;32.17;101693.22;5031250;28;45680;-81
2021/05/31 09:36:58;;;;;;;;;4.75;4.75;;;;;21.49;31.62;101685.22;5051652;27;44987;-81
2021/05/31 09:39:37;;;;;;;;;5.00;4.00;;;;;21.24;32.18;101644.72;5060051;23;45650;-90
2021/05/31 09:42:16;;;;;;;;;5.25;5.00;;;;;21.54;31.55;101691.59;5026646;28;47170;-88
2021/05/31 09:44:43;;;;;;;;;7.50;5.25;;;;;21.55;31.63;101690.72;5067823;23;45114;-89
2021/05/31 09:47:08;;;;;;;;;4.25;4.00;;;;;21.61;31.66;101687.31;5041612;28;45796;-90
2021/05/31 09:49:35;;;;;;;;;4.75;4.75;;;;;21.49;31.95;101663.97;5024933;28;44852;-89
2021/05/31 09:52:04;;;;;;;;;5.00;5.00;;;;;21.42;31.92;101644.31;5042461;28;47678;-91
2021/05/31 09:54:36;;;;;;;;;5.00;4.25;;;;;21.69;31.59;101684.00;5042331;28;45482;-91
2021/05/31 09:59:31;;;;;;;;;5.00;5.00;;;;;21.73;31.34;101678.72;5042330;28;46066;-90
2021/05/31 10:02:00;;;;;;;;;7.00;5.50;;;;;21.56;31.27;101652.63;5027801;28;46908;-89
2021/05/31 10:04:52;;;;;;;;;5.50;5.00;;;;;21.71;31.51;101674.28;5008831;28;45908;-90
2021/05/31 10:09:38;;;;;;;;;6.00;5.00;;;;;21.48;31.42;101644.47;5034002;28;45532;-89
2021/05/31 10:12:04;;;;;;;;;6.75;5.00;;;;;21.71;31.61;101682.25;5012985;28;46838;-90
2021/05/31 10:14:30;;;;;;;;;5.25;5.25;;;;;21.67;32.01;101664.44;5032496;28;45590;-89
2021/05/31 10:16:55;;;;;;;;;4.75;4.50;;;;;21.71;32.28;101671.63;5064976;22;59832;-84
2021/05/31 10:19:25;;;;;;;;;6.75;3.75;;;;;21.82;31.44;101677.22;5018869;28;49424;-85
2021/05/31 10:21:50;;;;;;;;;4.25;4.25;;;;;21.93;31.36;101672.16;4997244;23;47438;-91
2021/05/31 10:24:16;;;;;;;;;8.25;6.00;;;;;21.84;30.86;101655.97;5009415;28;45592;-90
2021/05/31 10:29:16;;;;;;;;;5.00;5.00;;;;;21.92;30.22;101670.38;5532364;23;45835;-89
2021/05/31 10:31:45;;;;;;;;;6.00;4.00;;;;;21.60;29.62;101619.94;4980374;28;55607;-90
2021/05/31 10:34:23;;;;;;;;;5.50;4.75;;;;;21.57;30.69;101627.81;5015437;28;45225;-89
2021/05/31 10:36:51;;;;;;;;;3.75;3.75;;;;;21.62;30.92;101642.16;4982872;28;45621;-92
2021/05/31 10:39:27;;;;;;;;;10.00;4.75;;;;;21.82;30.41;101666.59;4996488;28;45621;-90
2021/05/31 10:42:06;;;;;;;;;4.25;4.00;;;;;21.80;30.86;101672.72;5018936;28;47245;-89
2021/05/31 10:44:32;;;;;;;;;5.25;4.75;;;;;21.57;31.10;101623.41;5012777;28;45501;-89
2021/05/31 10:47:12;;;;;;;;;7.50;5.50;;;;;21.64;30.16;101639.53;4999344;28;45596;-89
2021/05/31 10:49:38;;;;;;;;;0.75;0.75;;;;;21.84;30.56;101664.88;4995710;28;45662;-89
2021/05/31 10:52:03;;;;;;;;;3.75;3.75;;;;;21.90;30.50;101657.88;4982675;28;47012;-89
2021/05/31 10:54:34;;;;;;;;;5.00;5.00;;;;;21.94;30.76;101663.34;4997690;28;45766;-89
2021/05/31 10:57:24;;;;;;;;;5.50;5.50;;;;;21.80;30.99;101628.44;5447468;23;46266;-89
2021/05/31 10:59:50;;;;;;;;;4.50;4.50;;;;;22.08;31.21;101658.31;4998411;28;45590;-91
2021/05/31 11:02:26;;;;;;;;;5.25;4.25;;;;;22.07;30.91;101634.34;5007405;28;47365;-90
2021/05/31 11:04:51;;;;;;;;;6.00;5.00;;;;;22.14;30.42;101654.00;5007170;28;45629;-90
2021/05/31 11:07:26;;;;;;;;;5.25;4.25;;;;;22.03;30.03;101629.81;4991916;28;45635;-90
2021/05/31 11:09:53;;;;;;;;;4.50;4.50;;;;;21.93;30.12;101610.97;4996469;28;45595;-91
2021/05/31 11:12:27;;;;;;;;;5.25;4.25;;;;;21.93;31.11;101607.41;5009732;28;45595;-91
2021/05/31 11:14:53;;;;;;;;;6.00;4.00;;;;;21.92;30.77;101608.25;4993767;28;46856;-91
2021/05/31 11:17:19;;;;;;;;;6.50;5.50;;;;;21.87;28.92;101596.63;5014089;28;45809;-89
2021/05/31 11:19:45;;;;;;;;;3.75;3.50;;;;;22.22;30.17;101658.59;5015347;28;46084;-89
2021/05/31 11:22:24;;;;;;;;;5.00;5.00;;;;;21.95;28.49;101598.59;5014470;28;46481;-88
2021/05/31 11:24:53;;;;;;;;;5.25;5.25;;;;;22.10;29.88;101621.06;4976532;28;45559;-89
2021/05/31 11:27:33;;;;;;;;;4.75;4.75;;;;;22.25;29.12;101648.91;5012310;28;45722;-91
2021/05/31 11:29:59;;;;;;;;;5.50;4.00;;;;;22.29;29.01;101641.03;5010807;28;45552;-89
2021/05/31 11:32:24;;;;;;;;;3.75;3.75;;;;;22.19;29.71;101613.31;5009662;28;45672;-89
2021/05/31 11:35:12;;;;;;;;;3.75;3.75;;;;;22.09;29.39;101590.91;4995706;28;46414;-91
2021/05/31 11:37:38;;;;;;;;;4.25;3.75;;;;;22.08;28.91;101598.88;5003843;28;45593;-88
2021/05/31 11:40:04;;;;;;;;;4.00;3.25;;;;;22.13;29.24;101580.34;4980600;28;64137;-90
2021/05/31 11:42:29;;;;;;;;;4.75;4.75;;;;;22.26;29.97;101594.78;5021522;23;46178;-86
2021/05/31 11:44:57;;;;;;;;;6.25;4.00;;;;;22.34;29.63;101604.75;5019122;28;45547;-82
2021/05/31 11:47:29;;;;;;;;;5.00;4.75;;;;;22.43;29.64;101605.78;5010998;28;45661;-82
2021/05/31 11:50:14;;;;;;;;;7.00;5.50;;;;;22.38;30.54;101595.03;5015450;28;45530;-82
2021/05/31 11:52:42;;;;;;;;;7.75;6.25;;;;;22.30;30.13;101572.69;5043787;22;59892;-91
2021/05/31 11:55:12;;;;;;;;;5.25;5.25;;;;;22.16;30.31;101554.69;5021754;28;45598;-92
2021/05/31 11:57:38;;;;;;;;;5.00;4.75;;;;;22.25;29.26;101564.63;5000064;28;45687;-88
2021/05/31 12:00:05;;;;;;;;;5.25;4.00;;;;;22.46;28.75;101600.53;5030913;28;46044;-90
2021/05/31 12:02:30;;;;;;;;;5.50;4.75;;;;;22.31;28.76;101559.41;5040459;28;48477;-90
2021/05/31 12:04:56;;;;;;;;;3.75;3.75;;;;;22.35;29.09;101574.56;5052858;27;59209;-92
2021/05/31 12:07:24;;;;;;;;;3.75;3.75;;;;;22.33;28.13;101559.44;5030630;23;45561;-90
2021/05/31 12:09:49;;;;;;;;;6.00;3.75;;;;;22.38;28.35;101570.19;5113317;22;46784;-88
2021/05/31 12:12:17;;;;;;;;;6.00;4.00;;;;;22.41;29.21;101584.44;5038267;23;45704;-82
2021/05/31 12:14:47;;;;;;;;;4.50;4.50;;;;;22.48;29.28;101589.03;5010283;28;45622;-82
2021/05/31 12:17:13;;;;;;;;;5.75;4.75;;;;;22.46;29.50;101574.78;5014986;28;46008;-84
2021/05/31 12:19:39;;;;;;;;;5.00;3.75;;;;;22.53;28.95;101574.91;5018912;28;45926;-83
2021/05/31 12:22:04;;;;;;;;;5.75;3.75;;;;;22.56;28.81;101575.00;5011785;28;47573;-82
2021/05/31 12:24:31;;;;;;;;;4.75;4.75;;;;;22.63;29.36;101581.34;5010661;28;46076;-81
2021/05/31 12:26:58;;;;;;;;;10.00;4.00;;;;;22.66;30.02;101562.78;5008499;28;45764;-81
2021/05/31 12:29:34;;;;;;;;;4.00;4.00;;;;;22.67;29.15;101553.91;5025862;23;45574;-89
2021/05/31 12:34:35;;;;;;;;;4.75;4.75;;;;;22.81;28.91;101552.38;5059069;23;47031;-84
2021/05/31 12:37:01;;;;;;;;;4.75;3.75;;;;;22.79;29.01;101546.13;5023535;28;45749;-87
2021/05/31 12:39:27;;;;;;;;;5.00;5.00;;;;;22.83;29.17;101553.31;5031498;28;47927;-85
2021/05/31 12:41:52;;;;;;;;;4.50;3.00;;;;;22.93;28.30;101574.78;5027267;28;46033;-85
2021/05/31 12:44:18;;;;;;;;;7.00;4.00;;;;;22.93;28.18;101575.69;5010898;28;45445;-83
2021/05/31 12:46:44;;;;;;;;;4.50;4.00;;;;;22.92;27.66;101571.19;5030070;28;48627;-83